Latest Weather Observations for Bunbury

IDW60801

Issued at 11:14 pm WST Saturday 23 January 2021 (issued every 10 minutes, with the page automatically refreshed every 10 minutes)

About weather observations | Map of weather stations | Latest weather observations for WA | Other Formats
Station Details ID: 009965 Name: BUNBURY Lat: -33.36 Lon: 115.64 Height: 5.2 m
Data from the previous 72 hours. | See also: Recent months at Bunbury
Date/Time
WST
Temp
°C
App
Temp
°C
Dew
Point
°C
Rel
Hum
%
Delta-T
°C
Wind Press
QNH
hPa
Press
MSL
hPa
Rain since
9am
mm
Dir  Spd
km/h
Gust
km/h
Spd
kts
Gust
kts
23/11:00pm 17.5 17.7 13.0 75 2.5 SSE 4 6 2 3 1005.6 1005.6 0.0
23/10:30pm 18.2 18.1 13.3 73 2.8 S 6 9 3 5 1005.6 1005.6 0.0
23/10:00pm 18.9 17.2 13.5 71 3.1 SSW 15 22 8 12 1005.7 1005.7 0.0
23/09:30pm 19.4 17.6 13.3 68 3.5 SSW 15 20 8 11 1005.7 1005.7 0.0
23/09:00pm 20.0 18.2 13.2 65 3.9 SW 15 22 8 12 1005.3 1005.3 0.0
23/08:30pm 20.5 18.4 13.7 65 3.9 SW 17 26 9 14 1004.8 1004.8 0.0
23/08:00pm 20.5 18.4 13.5 64 4.0 WSW 17 26 9 14 1004.1 1004.1 0.0
23/07:30pm 20.6 18.2 13.8 65 3.9 WSW 19 28 10 15 1003.9 1003.9 0.0
23/07:00pm 21.2 18.7 13.6 62 4.4 WSW 19 30 10 16 1003.7 1003.7 0.0
23/06:30pm 21.9 19.7 15.0 65 4.1 WSW 20 33 11 18 1003.3 1003.3 0.0
23/06:00pm 22.4 20.0 15.3 64 4.2 W 22 37 12 20 1002.9 1002.9 0.0
23/05:30pm 22.4 19.6 15.3 64 4.2 W 24 37 13 20 1002.7 1002.7 0.0
23/05:00pm 23.0 19.8 15.3 62 4.6 W 26 39 14 21 1002.5 1002.5 0.0
23/04:30pm 23.8 20.8 15.8 61 4.8 W 26 39 14 21 1002.3 1002.3 0.0
23/04:00pm 24.2 21.0 15.4 58 5.3 W 26 35 14 19 1002.2 1002.2 0.0
23/03:30pm 25.6 23.3 16.7 58 5.5 W 24 39 13 21 1002.2 1002.2 0.0
23/03:00pm 25.7 23.3 16.5 56 5.7 W 24 35 13 19 1002.0 1002.0 0.0
23/02:30pm 25.5 23.2 16.6 58 5.5 W 24 35 13 19 1001.9 1001.9 0.0
23/02:00pm 25.5 23.4 17.2 60 5.2 W 24 35 13 19 1002.0 1002.0 0.0
23/01:30pm 26.3 24.3 16.5 54 6.0 W 22 35 12 19 1001.8 1001.8 0.0
23/01:00pm 26.4 24.1 16.6 55 6.1 W 24 37 13 20 1001.7 1001.7 0.0
23/12:30pm 26.4 24.5 16.6 55 6.1 WSW 22 33 12 18 1001.8 1001.8 0.0
23/12:00pm 25.8 24.2 16.6 56 5.7 WSW 20 35 11 19 1001.8 1001.8 0.0
23/11:30am 25.8 24.4 16.9 58 5.5 WSW 20 32 11 17 1002.1 1002.1 0.0
23/11:00am 26.0 24.8 17.4 59 5.4 WSW 20 28 11 15 1002.4 1002.4 0.0
23/10:30am 24.8 23.5 17.3 63 4.7 WSW 20 32 11 17 1002.4 1002.4 0.0
23/10:00am 24.8 23.8 16.5 60 5.1 WSW 17 28 9 15 1002.4 1002.4 0.0
23/09:30am 23.4 22.8 17.6 70 3.6 WSW 17 24 9 13 1002.3 1002.3 0.0
23/09:00am 23.9 23.6 16.4 63 4.6 WSW 13 20 7 11 1002.0 1002.0 0.0
23/08:30am 23.5 24.3 16.3 64 4.4 SW 7 11 4 6 1001.6 1001.6 0.0
23/08:00am 21.9 23.3 15.3 66 3.9 WSW 2 6 1 3 1001.7 1001.7 0.0
23/07:30am 20.1 20.7 15.7 76 2.6 S 7 11 4 6 1001.6 1001.6 0.0
23/07:00am 18.4 18.4 15.1 81 1.9 S 9 13 5 7 1001.9 1001.9 0.0
23/06:30am 17.7 17.9 14.8 83 1.7 S 7 9 4 5 1001.7 1001.7 0.0
23/06:00am 14.8 15.6 12.5 86 1.3 CALM 0 0 0 0 1001.3 1001.3 0.0
23/05:30am 15.5 14.8 13.2 86 1.3 SSW 9 11 5 6 1001.3 1001.3 0.0
23/05:00am 13.9 13.6 11.4 85 1.3 SSW 4 6 2 3 1001.0 1001.0 0.0
23/04:30am 15.5 15.9 12.6 83 1.6 WSW 2 4 1 2 1001.0 1001.0 0.0
23/04:00am 15.2 15.0 11.8 80 1.8 SE 4 6 2 3 1000.9 1000.9 0.0
23/03:30am 16.8 17.1 12.3 75 2.5 SE 2 4 1 2 1000.7 1000.7 0.0
23/03:00am 17.9 16.7 12.8 72 2.9 S 11 15 6 8 1000.9 1000.9 0.0
23/02:30am 18.4 17.5 12.6 69 3.2 S 9 9 5 5 1001.0 1001.0 0.0
23/02:00am 19.4 19.0 13.1 67 3.6 SW 7 9 4 5 1001.2 1001.2 0.0
23/01:30am 17.8 17.8 12.5 71 2.9 SSE 4 6 2 3 1000.8 1000.8 0.0
23/01:00am 17.2 16.7 11.9 71 2.9 ESE 6 6 3 3 1001.3 1001.3 0.0
23/12:30am 17.6 17.5 12.1 70 3.0 SSW 4 6 2 3 1001.9 1001.9 0.0
23/12:00am 17.9 17.8 12.1 69 3.2 SW 4 6 2 3 1002.3 1002.3 0.0
 
Date/Time
WST
Temp
°C
App
Temp
°C
Dew
Point
°C
Rel
Hum
%
Delta-T
°C
Wind Press
QNH
hPa
Press
MSL
hPa
Rain since
9am
mm
Dir  Spd
km/h
Gust
km/h
Spd
kts
Gust
kts
22/11:30pm 18.4 18.6 11.9 66 3.6 SSW 2 4 1 2 1002.2 1002.2 0.0
22/11:00pm 19.1 19.5 12.6 66 3.7 SE 2 4 1 2 1002.2 1002.2 0.0
22/10:30pm 21.6 21.5 12.2 55 5.3 SSW 4 6 2 3 1002.7 1002.7 0.0
22/10:00pm 22.9 22.4 12.2 51 6.1 SSE 6 9 3 5 1002.9 1002.9 0.0
22/09:30pm 23.6 22.7 12.6 50 6.3 SSE 9 15 5 8 1003.1 1003.1 0.0
22/09:00pm 24.2 23.3 12.5 48 6.7 SSE 9 15 5 8 1003.2 1003.2 0.0
22/08:30pm 25.1 23.4 12.3 45 7.3 S 13 19 7 10 1003.0 1003.0 0.0
22/08:00pm 26.4 23.8 12.1 41 8.3 S 17 24 9 13 1002.7 1002.7 0.0
22/07:30pm 27.6 25.1 11.2 36 9.3 S 15 20 8 11 1002.5 1002.5 0.0
22/07:00pm 29.2 26.4 11.3 33 10.3 SSW 17 24 9 13 1002.2 1002.2 0.0
22/06:30pm 29.8 28.4 14.4 39 9.3 SW 15 20 8 11 1002.3 1002.3 0.0
22/06:00pm 29.7 27.0 13.0 35 9.9 SW 19 28 10 15 1002.1 1002.1 0.0
22/05:30pm 29.5 26.4 13.3 37 9.6 WSW 22 32 12 17 1002.0 1002.0 0.0
22/05:00pm 29.5 27.2 14.1 39 9.3 WSW 19 28 10 15 1002.1 1002.1 0.0
22/04:30pm 29.0 27.3 14.8 42 8.6 WSW 17 26 9 14 1002.3 1002.3 0.0
22/04:00pm 27.9 25.9 16.5 50 7.1 WSW 22 37 12 20 1002.6 1002.6 0.0
22/03:30pm 28.3 25.2 14.5 43 8.3 WSW 24 37 13 20 1003.0 1003.0 0.0
22/03:00pm 27.6 24.7 16.2 49 7.1 WSW 26 37 14 20 1003.2 1003.2 0.0
22/02:30pm 27.9 25.8 17.1 51 6.8 WSW 24 33 13 18 1003.5 1003.5 0.0
22/02:00pm 29.3 28.5 17.2 48 7.7 WSW 17 22 9 12 1003.7 1003.7 0.0
22/01:30pm 29.4 28.5 16.9 47 7.8 WSW 17 24 9 13 1003.9 1003.9 0.0
22/01:00pm 30.4 29.7 16.4 43 8.8 W 15 20 8 11 1004.1 1004.1 0.0
22/12:30pm 29.4 28.6 16.2 44 8.2 WSW 15 19 8 10 1004.4 1004.4 0.0
22/12:00pm 29.0 28.6 16.2 46 8.0 WSW 13 17 7 9 1004.7 1004.7 0.0
22/11:30am 28.6 28.3 16.5 48 7.5 W 13 17 7 9 1005.1 1005.1 0.0
22/11:00am 28.1 27.9 15.7 46 7.6 W 11 15 6 8 1005.5 1005.5 0.0
22/10:30am 29.9 30.6 14.4 38 9.4 ENE 4 9 2 5 1006.0 1006.0 0.0
22/10:00am 28.0 27.6 13.1 39 8.8 ESE 7 17 4 9 1006.5 1006.5 0.0
22/09:30am 27.3 26.1 12.9 41 8.4 E 11 19 6 10 1006.7 1006.7 0.0
22/09:00am 25.9 25.5 13.1 45 7.5 ESE 7 13 4 7 1007.2 1007.2 0.0
22/08:30am 24.5 24.3 13.1 49 6.6 E 6 9 3 5 1007.4 1007.4 0.0
22/08:00am 23.2 23.1 13.4 54 5.7 ESE 6 9 3 5 1007.7 1007.7 0.0
22/07:30am 21.4 21.8 13.8 62 4.4 SE 4 7 2 4 1008.1 1008.1 0.0
22/07:00am 20.4 20.5 13.8 66 3.8 ESE 6 7 3 4 1008.2 1008.2 0.0
22/06:30am 18.8 18.9 13.9 73 2.8 ESE 6 9 3 5 1008.2 1008.2 0.0
22/06:00am 17.4 17.7 13.3 77 2.3 SE 4 7 2 4 1008.2 1008.2 0.0
22/05:30am 17.3 16.6 13.2 77 2.3 ESE 9 13 5 7 1008.2 1008.2 0.0
22/05:00am 17.4 17.0 12.9 75 2.5 ESE 7 11 4 6 1008.2 1008.2 0.0
22/04:30am 17.9 17.1 13.0 73 2.7 ESE 9 15 5 8 1008.1 1008.1 0.0
22/04:00am 18.1 17.3 12.8 71 3.0 ESE 9 15 5 8 1008.2 1008.2 0.0
22/03:30am 18.9 17.1 13.3 70 3.2 ESE 15 24 8 13 1008.3 1008.3 0.0
22/03:00am 19.0 18.3 13.2 69 3.3 ESE 9 15 5 8 1008.6 1008.6 0.0
22/02:30am 19.4 18.5 13.6 69 3.3 ESE 11 19 6 10 1008.6 1008.6 0.0
22/02:00am 19.6 18.0 13.8 69 3.3 ESE 15 20 8 11 1008.8 1008.8 0.0
22/01:30am 20.0 18.1 14.1 69 3.4 ESE 17 24 9 13 1008.8 1008.8 0.0
22/01:00am 20.5 18.3 14.4 68 3.6 ESE 19 26 10 14 1009.0 1009.0 0.0
22/12:30am 20.8 18.6 14.5 67 3.7 ESE 19 28 10 15 1009.2 1009.2 0.0
22/12:00am 21.5 19.4 14.6 65 4.1 ESE 19 28 10 15 1009.6 1009.6 0.0
 
Date/Time
WST
Temp
°C
App
Temp
°C
Dew
Point
°C
Rel
Hum
%
Delta-T
°C
Wind Press
QNH
hPa
Press
MSL
hPa
Rain since
9am
mm
Dir  Spd
km/h
Gust
km/h
Spd
kts
Gust
kts
21/11:30pm 22.3 20.0 14.7 62 4.5 ESE 20 32 11 17 1009.8 1009.8 0.0
21/11:00pm 23.0 20.9 14.8 60 4.9 ESE 19 26 10 14 1009.9 1009.9 0.0
21/10:30pm 23.6 21.0 14.9 58 5.2 ESE 22 33 12 18 1009.9 1009.9 0.0
21/10:00pm 24.5 22.4 15.1 55 5.6 SE 20 35 11 19 1010.1 1010.1 0.0
21/09:30pm 25.5 23.4 15.2 53 6.2 SE 20 32 11 17 1010.0 1010.0 0.0
21/09:00pm 26.7 24.9 15.4 50 6.9 SE 19 28 10 15 1009.8 1009.8 0.0
21/08:30pm 26.7 26.3 16.3 53 6.4 SSE 13 17 7 9 1009.5 1009.5 0.0
21/08:00pm 26.8 26.2 16.7 54 6.3 S 15 24 8 13 1009.1 1009.1 0.0
21/07:30pm 27.5 25.8 17.1 53 6.5 S 22 30 12 16 1008.8 1008.8 0.0
21/07:00pm 29.3 27.4 16.8 47 7.8 S 22 33 12 18 1008.4 1008.4 0.0
21/06:30pm 32.6 29.5 13.3 31 11.6 SSE 22 32 12 17 1008.1 1008.1 0.0
21/06:00pm 34.0 31.7 10.6 24 13.6 ESE 13 20 7 11 1007.7 1007.7 0.0
21/05:30pm 34.6 32.7 10.4 23 14.1 ESE 11 19 6 10 1007.6 1007.6 0.0
21/05:00pm 34.4 35.2 16.3 34 11.5 W 7 15 4 8 1007.7 1007.7 0.0
21/04:30pm 31.8 32.5 18.0 43 8.9 WSW 11 17 6 9 1008.0 1008.0 0.0
21/04:00pm 30.1 28.9 17.5 46 8.0 WSW 20 28 11 15 1008.4 1008.4 0.0
21/03:30pm 30.5 29.2 16.9 44 8.6 WSW 19 26 10 14 1008.6 1008.6 0.0
21/03:00pm 30.7 29.3 17.0 43 8.7 W 20 32 11 17 1009.0 1009.0 0.0
21/02:30pm 31.6 29.8 15.5 37 10.0 WSW 19 26 10 14 1009.3 1009.3 0.0
21/02:00pm 32.4 31.9 15.8 36 10.4 WSW 13 19 7 10 1009.7 1009.7 0.0
21/01:30pm 33.5 33.6 14.5 31 11.7 SSE 7 15 4 8 1010.3 1010.3 0.0
21/01:00pm 32.6 31.6 14.7 34 11.0 SSW 13 20 7 11 1010.6 1010.6 0.0
21/12:30pm 31.7 31.4 14.4 35 10.6 SE 9 19 5 10 1011.1 1011.1 0.0
21/12:00pm 31.1 30.4 14.3 36 10.2 SE 11 19 6 10 1011.7 1011.7 0.0
21/11:30am 30.7 30.0 15.5 39 9.4 SE 13 22 7 12 1012.1 1012.1 0.0
21/11:00am 28.3 27.4 14.9 44 8.1 ESE 13 24 7 13 1012.5 1012.5 0.0
21/10:30am 27.9 26.8 15.2 46 7.7 SSE 15 24 8 13 1012.9 1012.9 0.0
21/10:00am 27.0 25.3 14.7 47 7.4 SE 17 24 9 13 1013.4 1013.4 0.0
21/09:30am 25.7 23.8 15.1 52 6.4 SE 19 30 10 16 1013.5 1013.5 0.0
21/09:00am 24.6 22.4 15.0 55 5.7 SE 20 30 11 16 1013.8 1013.8 0.0
21/08:30am 23.7 21.6 15.2 59 5.1 ESE 20 28 11 15 1013.7 1013.7 0.0
21/08:00am 22.9 21.1 15.5 63 4.4 ESE 19 26 10 14 1013.7 1013.7 0.0
21/07:30am 21.5 19.7 15.6 69 3.5 ESE 19 28 10 15 1013.6 1013.6 0.0
21/07:00am 20.2 18.7 15.4 74 2.8 SE 17 26 9 14 1013.6 1013.6 0.0
21/06:30am 19.2 19.0 15.7 80 2.1 SSE 11 15 6 8 1013.7 1013.7 0.0
21/06:00am 18.4 18.1 15.5 83 1.7 SE 11 19 6 10 1014.0 1013.9 0.0
21/05:30am 18.1 18.1 15.2 83 1.7 SE 9 17 5 9 1013.8 1013.8 0.0
21/05:00am 18.1 17.6 15.0 82 1.8 SSE 11 17 6 9 1013.3 1013.3 0.0
21/04:30am 18.5 18.1 15.2 81 1.9 SSE 11 17 6 9 1013.2 1013.2 0.0
21/04:00am 18.5 17.7 15.2 81 1.9 SE 13 19 7 10 1012.9 1012.9 0.0
21/03:30am 18.6 17.9 15.5 82 1.8 SE 13 17 7 9 1012.8 1012.8 0.0
21/03:00am 18.6 18.3 15.5 82 1.8 SE 11 19 6 10 1012.8 1012.8 0.0
21/02:30am 18.9 18.6 15.4 80 2.1 SSE 11 15 6 8 1013.1 1013.1 0.0
21/02:00am 19.3 18.7 15.6 79 2.2 SSE 13 19 7 10 1013.3 1013.3 0.0
21/01:30am 19.6 18.9 15.5 77 2.4 SSE 13 24 7 13 1013.3 1013.3 0.0
21/01:00am 20.0 19.8 15.6 76 2.6 SSE 11 19 6 10 1013.3 1013.3 0.0
21/12:30am 20.5 19.2 15.7 74 2.9 SSE 17 28 9 15 1013.1 1013.1 0.0
21/12:00am 20.9 19.6 15.7 72 3.1 SSE 17 26 9 14 1013.3 1013.3 0.0
 
Date/Time
WST
Temp
°C
App
Temp
°C
Dew
Point
°C
Rel
Hum
%
Delta-T
°C
Wind Press
QNH
hPa
Press
MSL
hPa
Rain since
9am
mm
Dir  Spd
km/h
Gust
km/h
Spd
kts
Gust
kts
20/11:30pm 21.2 20.0 16.0 72 3.1 SSE 17 28 9 15 1012.8 1012.8 0.0

Other formats

Comma delimited format used in spreadsheet applications
http://www.bom.gov.au/fwo/IDW60801/IDW60801.94604.axf

JavaScript Object Notation format (JSON) in row-major order
http://www.bom.gov.au/fwo/IDW60801/IDW60801.94604.json

Data quality

Most of these data are generated automatically and are frequently updated. Quality checks on data are not normally performed. It is possible for incorrect values to appear. Refer to information at About Latest Weather Observations and please check the disclaimer before using these data.